Weather at OR Tambo International Airport

Public forecast

Using degrees Celsius for public forecast. Weather courtesy of forecast.io.

Current aviation weather report (METAR) for OR Tambo International Airport

Retrieved 2021/01/17 18:30 UTC (0 seconds ago):

FAOR 171830Z 16007KT CAVOK 20/10 Q1017 NOSIG

Aviation forecast (TAF) for OR Tambo International Airport

Retrieved 2021/01/17 18:00 UTC (2 minutes ago):

TAF FAOR 171600Z 1718/1824 18010KT CAVOK TX27/1814Z TN17/1803Z BECMG 1720/1722 VRB03KT FM172200 02010KT 9999 BKN010 TEMPO 1800/1806 BKN005 BECMG 1806/1808 BKN015 FM180800 VRB03KT 9999 SCT035 PROB40 TEMPO 1816/1820 08015KT -TSRA FEW030CB FM182100 36010KT 9999 BKN010